Search for airport 
image banner adimage banner adimage banner ad
image banner ad

PN11 - Reno

Located in Enon Valley, United States

ICAO - PN11, IATA -

Data provided by Airmate  

General information

Coordinates: N40°53'23" W80°29'11"
Elevation is 1160 feet MSL.
Magnetic variation is -07° East
View others Airports in Pennsylvania

Operational data

Special qualification required
Current time UTC:
Current local time:
Weather at : KBVI - Beaver County ( 15 km )
METAR: KBVI 182255Z AUTO 00000KT 10SM CLR 25/07 A3029 RMK AO2 T02450070
TAF: KBVI 181726Z 1818/1918 12004KT P6SM SCT060 SCT250 FM190000 VRB03KT P6SM SCT250 FM191500 17004KT P6SM SCT040
View NOTAMs / SUP AIP / TFR affecting this airport [VIEW]
Communications frequencies: [VIEW]

Runways:

RWY identifierQFULength (ft)Width (ft)SurfaceLDA (ft)
092100120GRASS
272100120GRASS

Airport contact information

Address: Enon Valley United States

Satellite view of PN11